createdAt,value
2022-09-12T00:00:33.878Z,0.00
2022-09-12T00:01:33.939Z,0.00
2022-09-12T00:02:33.879Z,0.00
2022-09-12T00:03:33.848Z,0.00
2022-09-12T00:04:33.838Z,0.00
2022-09-12T00:05:33.834Z,0.00
2022-09-12T00:06:33.801Z,0.00
2022-09-12T00:07:33.833Z,0.00
2022-09-12T00:08:33.780Z,0.00
2022-09-12T00:09:33.831Z,0.00
2022-09-12T00:10:33.750Z,0.00
2022-09-12T00:11:33.741Z,0.00
2022-09-12T00:12:33.750Z,0.00
2022-09-12T00:13:35.546Z,0.00
2022-09-12T00:14:33.691Z,0.00
2022-09-12T00:15:33.693Z,0.00
2022-09-12T00:16:33.819Z,0.00
2022-09-12T00:17:33.708Z,0.00
2022-09-12T00:18:33.640Z,0.00
2022-09-12T00:19:33.631Z,0.00
2022-09-12T00:20:33.612Z,0.00
2022-09-12T00:21:33.603Z,0.00
2022-09-12T00:22:33.582Z,0.00
2022-09-12T00:23:33.603Z,0.00
2022-09-12T00:24:33.563Z,0.00
2022-09-12T00:25:33.571Z,0.00
2022-09-12T00:26:33.533Z,0.00
2022-09-12T00:27:33.521Z,0.00
2022-09-12T00:28:33.541Z,0.00
2022-09-12T00:29:33.496Z,0.00
2022-09-12T00:30:33.474Z,0.00
2022-09-12T00:31:33.500Z,0.00
2022-09-12T00:32:33.443Z,0.00
2022-09-12T00:33:33.474Z,0.00
2022-09-12T00:34:33.426Z,0.00
2022-09-12T00:35:33.416Z,0.00
2022-09-12T00:36:33.395Z,0.00
2022-09-12T00:37:33.457Z,0.00
2022-09-12T00:38:33.365Z,0.00
2022-09-12T00:39:33.355Z,0.00
2022-09-12T00:40:33.346Z,0.00
2022-09-12T00:41:33.341Z,0.00
2022-09-12T00:42:33.348Z,0.00
2022-09-12T00:43:33.306Z,0.00
2022-09-12T00:44:33.297Z,0.00
2022-09-12T00:45:33.297Z,0.00
2022-09-12T00:46:33.266Z,0.00
2022-09-12T00:47:33.296Z,0.00
2022-09-12T00:48:33.266Z,0.00
2022-09-12T00:49:33.227Z,0.00
2022-09-12T00:50:33.215Z,0.00
2022-09-12T00:51:33.199Z,0.00
2022-09-12T00:52:33.216Z,0.00
2022-09-12T00:53:33.166Z,0.00
2022-09-12T00:54:33.149Z,0.00
2022-09-12T00:55:33.138Z,0.00
2022-09-12T00:56:33.126Z,0.00
2022-09-12T00:57:33.139Z,0.00
2022-09-12T00:58:33.111Z,0.00
2022-09-12T00:59:33.080Z,0.00
2022-09-12T01:00:33.069Z,0.00
2022-09-12T01:01:33.166Z,0.00
2022-09-12T01:02:33.079Z,0.00
2022-09-12T01:03:33.029Z,0.00
2022-09-12T01:04:33.029Z,0.00
2022-09-12T01:05:33.002Z,0.00
2022-09-12T01:06:32.997Z,0.00
2022-09-12T01:07:35.818Z,0.00
2022-09-12T01:08:33.970Z,0.00
2022-09-12T01:09:32.954Z,0.00
2022-09-12T01:10:32.941Z,0.00
2022-09-12T01:11:32.922Z,0.00
2022-09-12T01:12:32.938Z,0.00
2022-09-12T01:13:32.893Z,0.00
2022-09-12T01:14:32.881Z,0.00
2022-09-12T01:15:32.882Z,0.00
2022-09-12T01:16:32.885Z,0.00
2022-09-12T01:17:32.927Z,0.00
2022-09-12T01:18:32.833Z,0.00
2022-09-12T01:19:32.803Z,0.00
2022-09-12T01:20:32.804Z,0.00
2022-09-12T01:21:32.782Z,0.00
2022-09-12T01:22:32.792Z,0.00
2022-09-12T01:23:32.764Z,0.00
2022-09-12T01:24:32.753Z,0.00
2022-09-12T01:25:32.725Z,0.00
2022-09-12T01:26:32.715Z,0.00
2022-09-12T01:27:32.732Z,0.00
2022-09-12T01:28:32.703Z,0.00
2022-09-12T01:29:32.675Z,0.00
2022-09-12T01:30:32.687Z,0.00
2022-09-12T01:31:32.655Z,0.00
2022-09-12T01:32:32.692Z,0.00
2022-09-12T01:33:32.613Z,0.00
2022-09-12T01:34:32.604Z,0.00
2022-09-12T01:35:32.599Z,0.00
2022-09-12T01:36:32.594Z,0.00
2022-09-12T01:37:32.587Z,0.00
2022-09-12T01:38:32.574Z,0.00
2022-09-12T01:39:32.545Z,0.00
2022-09-12T01:40:32.533Z,0.00
2022-09-12T01:41:32.516Z,0.00
2022-09-12T01:42:32.539Z,0.00
2022-09-12T01:43:32.485Z,0.00
2022-09-12T01:44:32.478Z,0.00
2022-09-12T01:45:32.500Z,0.00
2022-09-12T01:46:32.474Z,0.00
2022-09-12T01:47:32.475Z,0.00
2022-09-12T01:48:32.417Z,0.00
2022-09-12T01:49:32.397Z,0.00
2022-09-12T01:50:32.396Z,0.00
2022-09-12T01:51:32.376Z,0.00
2022-09-12T01:52:32.387Z,0.00
2022-09-12T01:53:32.347Z,0.00
2022-09-12T01:54:32.428Z,0.00
2022-09-12T01:55:32.319Z,0.00
2022-09-12T01:56:32.312Z,0.00
2022-09-12T01:57:32.317Z,0.00
2022-09-12T01:58:32.356Z,0.00
2022-09-12T01:59:32.280Z,0.00
2022-09-12T02:00:32.259Z,0.00
2022-09-12T02:01:32.292Z,0.00
2022-09-12T02:02:32.270Z,0.00
2022-09-12T02:03:32.210Z,0.00
2022-09-12T02:04:34.315Z,0.00
2022-09-12T02:05:32.184Z,0.00
2022-09-12T02:06:32.192Z,0.00
2022-09-12T02:07:32.212Z,0.00
2022-09-12T02:08:32.171Z,0.00
2022-09-12T02:09:32.140Z,0.00
2022-09-12T02:10:32.802Z,0.00
2022-09-12T02:11:32.147Z,0.00
2022-09-12T02:12:32.103Z,0.00
2022-09-12T02:13:32.098Z,0.00
2022-09-12T02:14:32.081Z,0.00
2022-09-12T02:15:32.101Z,0.00
2022-09-12T02:16:32.126Z,0.00
2022-09-12T02:17:32.026Z,0.00
2022-09-12T02:18:32.051Z,0.00
2022-09-12T02:19:31.992Z,0.00
2022-09-12T02:20:47.325Z,0.00
2022-09-12T02:21:32.979Z,0.00
2022-09-12T02:22:31.974Z,0.00
2022-09-12T02:23:31.964Z,0.00
2022-09-12T02:24:31.943Z,0.00
2022-09-12T02:25:31.914Z,0.00
2022-09-12T02:26:31.917Z,0.00
2022-09-12T02:27:31.884Z,0.00
2022-09-12T02:28:31.905Z,0.00
2022-09-12T02:29:31.867Z,0.00
2022-09-12T02:30:31.871Z,0.00
2022-09-12T02:31:31.832Z,0.00
2022-09-12T02:32:31.826Z,0.00
2022-09-12T02:33:31.844Z,0.00
2022-09-12T02:34:31.794Z,0.00
2022-09-12T02:35:31.824Z,0.00
2022-09-12T02:36:31.765Z,0.00
2022-09-12T02:37:31.764Z,0.00
2022-09-12T02:38:31.774Z,0.00
2022-09-12T02:39:31.724Z,0.00
2022-09-12T02:40:31.713Z,0.00
2022-09-12T02:41:31.695Z,0.00
2022-09-12T02:42:31.688Z,0.00
2022-09-12T02:43:31.694Z,0.00
2022-09-12T02:44:31.674Z,0.00
2022-09-12T02:45:31.706Z,0.00
2022-09-12T02:46:31.626Z,0.00
2022-09-12T02:47:31.618Z,0.00
2022-09-12T02:48:31.664Z,0.00
2022-09-12T02:49:31.587Z,0.00
2022-09-12T02:50:31.638Z,0.00
2022-09-12T02:51:31.558Z,0.00
2022-09-12T02:52:31.549Z,0.00
2022-09-12T02:53:31.578Z,0.00
2022-09-12T02:54:31.679Z,0.00
2022-09-12T02:55:31.506Z,0.00
2022-09-12T02:56:31.499Z,0.00
2022-09-12T02:57:31.488Z,0.00
2022-09-12T02:58:31.494Z,0.00
2022-09-12T02:59:31.449Z,0.00
2022-09-12T03:00:31.478Z,0.00
2022-09-12T03:01:31.493Z,0.00
2022-09-12T03:02:31.417Z,0.00
2022-09-12T03:03:31.419Z,0.00
2022-09-12T03:04:31.389Z,0.00
2022-09-12T03:05:31.370Z,0.00
2022-09-12T03:06:31.380Z,0.00
2022-09-12T03:07:31.347Z,0.00
2022-09-12T03:08:31.359Z,0.00
2022-09-12T03:09:31.311Z,0.00
2022-09-12T03:10:31.308Z,0.00
2022-09-12T03:11:31.291Z,0.00
2022-09-12T03:12:31.313Z,0.00
2022-09-12T03:13:31.261Z,0.00
2022-09-12T03:14:31.260Z,0.00
2022-09-12T03:15:31.231Z,0.00
2022-09-12T03:16:31.267Z,0.00
2022-09-12T03:17:31.239Z,0.00
2022-09-12T03:18:31.199Z,0.00
2022-09-12T03:19:31.182Z,0.00
2022-09-12T03:20:31.170Z,0.00
2022-09-12T03:21:31.152Z,0.00
2022-09-12T03:22:31.172Z,0.00
2022-09-12T03:23:31.123Z,0.00
2022-09-12T03:24:31.113Z,0.00
2022-09-12T03:25:31.093Z,0.00
2022-09-12T03:26:31.092Z,0.00
2022-09-12T03:27:31.151Z,0.00
2022-09-12T03:28:31.063Z,0.00
2022-09-12T03:29:31.044Z,0.00
2022-09-12T03:30:31.071Z,0.00
2022-09-12T03:31:31.016Z,0.00
2022-09-12T03:32:31.034Z,0.00
2022-09-12T03:33:30.984Z,0.00
2022-09-12T03:34:30.984Z,0.00
2022-09-12T03:35:30.966Z,0.00
2022-09-12T03:36:30.957Z,0.00
2022-09-12T03:37:30.955Z,0.00
2022-09-12T03:38:30.926Z,0.00
2022-09-12T03:39:30.912Z,0.00
2022-09-12T03:40:30.896Z,0.00
2022-09-12T03:41:30.885Z,0.00
2022-09-12T03:42:30.898Z,0.00
2022-09-12T03:43:30.856Z,0.00
2022-09-12T03:44:30.844Z,0.00
2022-09-12T03:45:30.847Z,0.00
2022-09-12T03:46:30.817Z,0.00
2022-09-12T03:47:30.828Z,0.00
2022-09-12T03:48:30.807Z,0.00
2022-09-12T03:49:30.778Z,0.00
2022-09-12T03:50:30.766Z,0.00
2022-09-12T03:51:30.747Z,0.00
2022-09-12T03:52:30.769Z,0.00
2022-09-12T03:53:30.722Z,0.00
2022-09-12T03:54:30.710Z,0.00
2022-09-12T03:55:30.689Z,0.00
2022-09-12T03:56:30.696Z,0.00
2022-09-12T03:57:30.669Z,0.00
2022-09-12T03:58:30.710Z,0.00
2022-09-12T03:59:30.637Z,0.00
2022-09-12T04:00:30.629Z,0.00
2022-09-12T04:01:30.671Z,0.00
2022-09-12T04:02:30.637Z,0.00
2022-09-12T04:03:30.609Z,0.00
2022-09-12T04:04:30.577Z,0.00
2022-09-12T04:05:30.557Z,0.00
2022-09-12T04:06:30.563Z,0.00
2022-09-12T04:07:30.530Z,0.00
2022-09-12T04:08:30.541Z,0.00
2022-09-12T04:09:30.511Z,0.00
2022-09-12T04:10:30.491Z,0.00
2022-09-12T04:11:30.470Z,0.00
2022-09-12T04:12:30.464Z,0.00
2022-09-12T04:13:30.485Z,0.00
2022-09-12T04:14:30.438Z,0.00
2022-09-12T04:15:30.420Z,0.00
2022-09-12T04:16:30.455Z,0.00
2022-09-12T04:17:30.401Z,0.00
2022-09-12T04:18:30.410Z,0.00
2022-09-12T04:19:30.362Z,0.00
2022-09-12T04:20:30.370Z,0.00
2022-09-12T04:21:30.355Z,0.00
2022-09-12T04:22:30.343Z,0.00
2022-09-12T04:23:30.337Z,0.00
2022-09-12T04:24:30.304Z,0.00
2022-09-12T04:25:30.283Z,0.00
2022-09-12T04:26:30.273Z,4.00
2022-09-12T04:27:30.262Z,4.00
2022-09-12T04:28:30.273Z,4.00
2022-09-12T04:29:30.232Z,4.00
2022-09-12T04:30:30.252Z,4.00
2022-09-12T04:31:30.204Z,0.00
2022-09-12T04:32:30.195Z,0.00
2022-09-12T04:33:30.205Z,0.00
2022-09-12T04:34:30.173Z,0.00
2022-09-12T04:35:30.145Z,0.00
2022-09-12T04:36:30.135Z,4.00
2022-09-12T04:37:30.115Z,4.00
2022-09-12T04:38:30.136Z,0.00
2022-09-12T04:39:30.116Z,0.00
2022-09-12T04:40:30.085Z,4.00
2022-09-12T04:41:30.067Z,0.00
2022-09-12T04:42:30.057Z,4.00
2022-09-12T04:43:30.068Z,4.00
2022-09-12T04:44:30.026Z,4.00
2022-09-12T04:45:30.080Z,4.00
2022-09-12T04:46:30.005Z,8.00
2022-09-12T04:47:29.999Z,8.00
2022-09-12T04:48:30.008Z,8.00
2022-09-12T04:49:29.958Z,12.00
2022-09-12T04:50:29.949Z,12.00
2022-09-12T04:51:29.948Z,16.00
2022-09-12T04:52:29.924Z,16.00
2022-09-12T04:53:29.926Z,20.00
2022-09-12T04:54:29.904Z,24.00
2022-09-12T04:55:29.879Z,24.00
2022-09-12T04:56:29.858Z,32.00
2022-09-12T04:57:29.859Z,36.00
2022-09-12T04:58:29.858Z,40.00
2022-09-12T04:59:29.839Z,44.00
2022-09-12T05:00:29.843Z,52.00
2022-09-12T05:01:29.839Z,56.00
2022-09-12T05:02:29.826Z,60.00
2022-09-12T05:03:29.807Z,68.00
2022-09-12T05:04:29.749Z,72.00
2022-09-12T05:05:29.742Z,80.00
2022-09-12T05:06:29.740Z,92.00
2022-09-12T05:07:29.728Z,96.00
2022-09-12T05:08:29.727Z,108.00
2022-09-12T05:09:29.692Z,116.00
2022-09-12T05:10:29.671Z,124.00
2022-09-12T05:11:46.869Z,128.00
2022-09-12T05:12:30.641Z,136.00
2022-09-12T05:13:29.725Z,148.00
2022-09-12T05:14:29.619Z,156.00
2022-09-12T05:15:29.620Z,168.00
2022-09-12T05:16:29.634Z,176.00
2022-09-12T05:17:29.617Z,192.00
2022-09-12T05:18:29.562Z,200.00
2022-09-12T05:19:29.552Z,216.00
2022-09-12T05:20:29.553Z,228.00
2022-09-12T05:21:29.523Z,240.00
2022-09-12T05:22:29.543Z,252.00
2022-09-12T05:23:29.493Z,260.00
2022-09-12T05:24:29.524Z,276.00
2022-09-12T05:25:29.474Z,288.00
2022-09-12T05:26:29.454Z,300.00
2022-09-12T05:27:29.445Z,308.00
2022-09-12T05:28:29.457Z,320.00
2022-09-12T05:29:29.434Z,328.00
2022-09-12T05:30:29.464Z,340.00
2022-09-12T05:31:29.384Z,352.00
2022-09-12T05:32:29.386Z,360.00
2022-09-12T05:33:29.393Z,372.00
2022-09-12T05:34:29.343Z,380.00
2022-09-12T05:35:29.341Z,392.00
2022-09-12T05:36:29.344Z,404.00
2022-09-12T05:37:29.305Z,416.00
2022-09-12T05:38:29.316Z,428.00
2022-09-12T05:39:29.287Z,440.00
2022-09-12T05:40:29.256Z,456.00
2022-09-12T05:41:29.254Z,476.00
2022-09-12T05:42:29.228Z,496.00
2022-09-12T05:43:29.289Z,520.00
2022-09-12T05:44:29.225Z,540.00
2022-09-12T05:45:29.197Z,560.00
2022-09-12T05:46:29.187Z,576.00
2022-09-12T05:47:29.182Z,588.00
2022-09-12T05:48:29.178Z,592.00
2022-09-12T05:49:29.148Z,596.00
2022-09-12T05:50:29.128Z,596.00
2022-09-12T05:51:29.119Z,596.00
2022-09-12T05:52:29.096Z,600.00
2022-09-12T05:53:29.111Z,596.00
2022-09-12T05:54:31.685Z,596.00
2022-09-12T05:55:29.069Z,596.00
2022-09-12T05:56:29.039Z,592.00
2022-09-12T05:57:29.089Z,588.00
2022-09-12T05:58:29.039Z,580.00
2022-09-12T05:59:29.009Z,584.00
2022-09-12T06:00:33.321Z,584.00
2022-09-12T06:01:29.024Z,592.00
2022-09-12T06:02:28.973Z,596.00
2022-09-12T06:03:28.977Z,608.00
2022-09-12T06:04:28.941Z,620.00
2022-09-12T06:05:28.931Z,632.00
2022-09-12T06:06:28.920Z,652.00
2022-09-12T06:07:28.900Z,684.00
2022-09-12T06:08:28.924Z,712.00
2022-09-12T06:09:28.872Z,744.00
2022-09-12T06:10:28.851Z,776.00
2022-09-12T06:11:28.864Z,808.00
2022-09-12T06:12:28.822Z,848.00
2022-09-12T06:13:28.842Z,884.00
2022-09-12T06:14:28.812Z,916.00
2022-09-12T06:15:28.789Z,948.00
2022-09-12T06:16:28.876Z,976.00
2022-09-12T06:17:28.762Z,1004.00
2022-09-12T06:18:28.763Z,1028.00
2022-09-12T06:19:28.743Z,1056.00
2022-09-12T06:20:28.714Z,1080.00
2022-09-12T06:21:28.725Z,1096.00
2022-09-12T06:22:28.693Z,1108.00
2022-09-12T06:23:28.714Z,1112.00
2022-09-12T06:24:28.664Z,1128.00
2022-09-12T06:25:28.670Z,1140.00
2022-09-12T06:26:28.637Z,1148.00
2022-09-12T06:27:28.646Z,1164.00
2022-09-12T06:28:28.662Z,1176.00
2022-09-12T06:29:28.612Z,1192.00
2022-09-12T06:30:28.674Z,1208.00
2022-09-12T06:31:28.573Z,1228.00
2022-09-12T06:32:28.556Z,1244.00
2022-09-12T06:33:28.575Z,1268.00
2022-09-12T06:34:28.526Z,1292.00
2022-09-12T06:35:28.516Z,1312.00
2022-09-12T06:36:28.503Z,1332.00
2022-09-12T06:37:28.497Z,1356.00
2022-09-12T06:38:28.517Z,1384.00
2022-09-12T06:39:28.474Z,1400.00
2022-09-12T06:40:28.446Z,1420.00
2022-09-12T06:41:28.447Z,1428.00
2022-09-12T06:42:28.427Z,1444.00
2022-09-12T06:43:28.435Z,1472.00
2022-09-12T06:44:28.389Z,1492.00
2022-09-12T06:45:28.378Z,1524.00
2022-09-12T06:46:28.374Z,1556.00
2022-09-12T06:47:28.356Z,1584.00
2022-09-12T06:48:28.359Z,1600.00
2022-09-12T06:49:28.358Z,1616.00
2022-09-12T06:50:28.320Z,1636.00
2022-09-12T06:51:28.300Z,1636.00
2022-09-12T06:52:28.280Z,1648.00
2022-09-12T06:53:28.309Z,1652.00
2022-09-12T06:54:28.260Z,1672.00
2022-09-12T06:55:28.250Z,1676.00
2022-09-12T06:56:28.259Z,1688.00
2022-09-12T06:57:28.237Z,1688.00
2022-09-12T06:58:28.221Z,1688.00
2022-09-12T06:59:28.201Z,1688.00
2022-09-12T07:00:28.171Z,1684.00
2022-09-12T07:01:28.204Z,1688.00
2022-09-12T07:02:28.176Z,1676.00
2022-09-12T07:03:28.162Z,1664.00
2022-09-12T07:04:28.125Z,1660.00
2022-09-12T07:05:28.120Z,1656.00
2022-09-12T07:06:28.092Z,1648.00
2022-09-12T07:07:28.102Z,1644.00
2022-09-12T07:08:28.064Z,1644.00
2022-09-12T07:09:28.054Z,1648.00
2022-09-12T07:10:28.034Z,1648.00
2022-09-12T07:11:28.030Z,1660.00
2022-09-12T07:12:28.034Z,1664.00
2022-09-12T07:13:28.001Z,1676.00
2022-09-12T07:14:27.981Z,1688.00
2022-09-12T07:15:27.974Z,1700.00
2022-09-12T07:16:27.990Z,1716.00
2022-09-12T07:17:27.995Z,1732.00
2022-09-12T07:18:27.955Z,1740.00
2022-09-12T07:19:27.921Z,1792.00
2022-09-12T07:20:27.905Z,1800.00
2022-09-12T07:21:27.885Z,1836.00
2022-09-12T07:22:27.895Z,1868.00
2022-09-12T07:23:27.864Z,1912.00
2022-09-12T07:24:27.855Z,1956.00
2022-09-12T07:25:27.836Z,1972.00
2022-09-12T07:26:27.819Z,2024.00
2022-09-12T07:27:27.836Z,2052.00
2022-09-12T07:28:27.795Z,2084.00
2022-09-12T07:29:43.131Z,2104.00
2022-09-12T07:30:28.797Z,2128.00
2022-09-12T07:31:27.760Z,2156.00
2022-09-12T07:32:27.758Z,2188.00
2022-09-12T07:33:27.746Z,2220.00
2022-09-12T07:34:27.709Z,2244.00
2022-09-12T07:35:27.706Z,2268.00
2022-09-12T07:36:27.690Z,2300.00
2022-09-12T07:37:27.700Z,2316.00
2022-09-12T07:38:27.660Z,2328.00
2022-09-12T07:39:27.647Z,2352.00
2022-09-12T07:40:27.638Z,2364.00
2022-09-12T07:41:27.647Z,2384.00
2022-09-12T07:42:27.629Z,2380.00
2022-09-12T07:43:27.598Z,2400.00
2022-09-12T07:44:27.581Z,2396.00
2022-09-12T07:45:27.570Z,2384.00
2022-09-12T07:46:27.551Z,2360.00
2022-09-12T07:47:27.568Z,2356.00
2022-09-12T07:48:28.502Z,2332.00
2022-09-12T07:49:27.529Z,2332.00
2022-09-12T07:50:27.492Z,2312.00
2022-09-12T07:51:27.512Z,2276.00
2022-09-12T07:52:27.464Z,2252.00
2022-09-12T07:53:27.461Z,2236.00
2022-09-12T07:54:27.443Z,2204.00
2022-09-12T07:55:27.431Z,2184.00
2022-09-12T07:56:30.561Z,2180.00
2022-09-12T07:57:27.416Z,2152.00
2022-09-12T07:58:27.384Z,2132.00
2022-09-12T07:59:50.787Z,2108.00
2022-09-12T08:00:28.355Z,2088.00
2022-09-12T08:01:27.392Z,2056.00
2022-09-12T08:02:27.407Z,2044.00
2022-09-12T08:03:27.322Z,2012.00
2022-09-12T08:04:27.302Z,1976.00
2022-09-12T08:05:27.303Z,1924.00
2022-09-12T08:06:27.273Z,1876.00
2022-09-12T08:07:27.285Z,1820.00
2022-09-12T08:08:27.261Z,1764.00
2022-09-12T08:09:27.237Z,1724.00
2022-09-12T08:10:27.216Z,1700.00
2022-09-12T08:11:27.217Z,1708.00
2022-09-12T08:12:27.217Z,1692.00
2022-09-12T08:13:27.196Z,1720.00
2022-09-12T08:14:27.169Z,1752.00
2022-09-12T08:15:27.227Z,1780.00
2022-09-12T08:16:27.139Z,1792.00
2022-09-12T08:17:27.191Z,1820.00
2022-09-12T08:18:27.108Z,1852.00
2022-09-12T08:19:27.108Z,1884.00
2022-09-12T08:20:28.509Z,1916.00
2022-09-12T08:21:27.087Z,1892.00
2022-09-12T08:22:27.098Z,1912.00
2022-09-12T08:23:27.050Z,1932.00
2022-09-12T08:24:27.038Z,1900.00
2022-09-12T08:25:27.019Z,1812.00
2022-09-12T08:26:26.999Z,1740.00
2022-09-12T08:27:27.044Z,1756.00
2022-09-12T08:28:26.976Z,1792.00
2022-09-12T08:29:26.982Z,1844.00
2022-09-12T08:30:26.951Z,1948.00
2022-09-12T08:31:26.958Z,2140.00
2022-09-12T08:32:26.951Z,2300.00
2022-09-12T08:33:26.913Z,2444.00
2022-09-12T08:34:26.890Z,2420.00
2022-09-12T08:35:26.884Z,2208.00
2022-09-12T08:36:26.874Z,2016.00
2022-09-12T08:37:26.892Z,1908.00
2022-09-12T08:38:26.844Z,1880.00
2022-09-12T08:39:26.833Z,1976.00
2022-09-12T08:40:26.813Z,2132.00
2022-09-12T08:41:26.803Z,2412.00
2022-09-12T08:42:26.814Z,2756.00
2022-09-12T08:43:26.776Z,3008.00
2022-09-12T08:44:26.783Z,3320.00
2022-09-12T08:45:26.755Z,3608.00
2022-09-12T08:46:26.817Z,3924.00
2022-09-12T08:47:26.723Z,4200.00
2022-09-12T08:48:26.718Z,4396.00
2022-09-12T08:49:26.703Z,4500.00
2022-09-12T08:50:26.677Z,4636.00
2022-09-12T08:51:26.705Z,4844.00
2022-09-12T08:52:26.655Z,5008.00
2022-09-12T08:53:26.636Z,5164.00
2022-09-12T08:54:26.635Z,5240.00
2022-09-12T08:55:26.616Z,5308.00
2022-09-12T08:56:31.423Z,5324.00
2022-09-12T08:57:27.616Z,5356.00
2022-09-12T08:58:26.574Z,5308.00
2022-09-12T08:59:26.576Z,5312.00
2022-09-12T09:00:26.548Z,5240.00
2022-09-12T09:01:26.604Z,5224.00
2022-09-12T09:02:26.638Z,5208.00
2022-09-12T09:03:26.508Z,5204.00
2022-09-12T09:04:28.792Z,5200.00
2022-09-12T09:05:26.481Z,5256.00
2022-09-12T09:06:26.478Z,5292.00
2022-09-12T09:07:26.449Z,5352.00
2022-09-12T09:08:26.440Z,5348.00
2022-09-12T09:09:26.421Z,5356.00
2022-09-12T09:10:26.410Z,5364.00
2022-09-12T09:11:26.416Z,5376.00
2022-09-12T09:12:26.382Z,5296.00
2022-09-12T09:13:26.360Z,5168.00
2022-09-12T09:14:26.351Z,5024.00
2022-09-12T09:15:26.415Z,4716.00
2022-09-12T09:16:26.351Z,4452.00
2022-09-12T09:17:26.311Z,4024.00
2022-09-12T09:18:26.299Z,3636.00
2022-09-12T09:19:26.283Z,3196.00
2022-09-12T09:20:26.302Z,2804.00
2022-09-12T09:21:26.279Z,2544.00
2022-09-12T09:22:26.264Z,2224.00
2022-09-12T09:23:26.246Z,2160.00
2022-09-12T09:24:26.214Z,2172.00
2022-09-12T09:25:26.204Z,2336.00
2022-09-12T09:26:26.234Z,2372.00
2022-09-12T09:27:39.998Z,2392.00
2022-09-12T09:28:27.180Z,2396.00
2022-09-12T09:29:26.146Z,2396.00
2022-09-12T09:30:26.135Z,2448.00
2022-09-12T09:31:26.212Z,2496.00
2022-09-12T09:32:26.114Z,2472.00
2022-09-12T09:33:26.097Z,2416.00
2022-09-12T09:34:26.087Z,2564.00
2022-09-12T09:35:26.074Z,2540.00
2022-09-12T09:36:26.084Z,2532.00
2022-09-12T09:37:26.046Z,2552.00
2022-09-12T09:38:26.035Z,2520.00
2022-09-12T09:39:26.007Z,2488.00
2022-09-12T09:40:26.015Z,2484.00
2022-09-12T09:41:26.018Z,2488.00
2022-09-12T09:42:26.001Z,2468.00
2022-09-12T09:43:25.958Z,2500.00
2022-09-12T09:44:25.949Z,2500.00
2022-09-12T09:45:25.931Z,2548.00
2022-09-12T09:46:26.062Z,2608.00
2022-09-12T09:47:25.900Z,2644.00
2022-09-12T09:48:25.897Z,2556.00
2022-09-12T09:49:25.878Z,2668.00
2022-09-12T09:50:25.880Z,2628.00
2022-09-12T09:51:25.879Z,2456.00
2022-09-12T09:52:25.841Z,2532.00
2022-09-12T09:53:25.820Z,2560.00
2022-09-12T09:54:25.824Z,2580.00
2022-09-12T09:55:25.793Z,2544.00
2022-09-12T09:56:25.812Z,2488.00
2022-09-12T09:57:25.773Z,2408.00
2022-09-12T09:58:25.766Z,2332.00
2022-09-12T09:59:25.750Z,2328.00
2022-09-12T10:00:25.735Z,2376.00
2022-09-12T10:01:25.780Z,2412.00
2022-09-12T10:02:25.741Z,2484.00
2022-09-12T10:03:25.684Z,2512.00
2022-09-12T10:04:25.674Z,2540.00
2022-09-12T10:05:25.677Z,2556.00
2022-09-12T10:06:25.675Z,2556.00
2022-09-12T10:07:25.646Z,2588.00
2022-09-12T10:08:25.625Z,2640.00
2022-09-12T10:09:25.605Z,2628.00
2022-09-12T10:10:25.616Z,2692.00
2022-09-12T10:11:25.605Z,2756.00
2022-09-12T10:12:25.583Z,2788.00
2022-09-12T10:13:25.564Z,2808.00
2022-09-12T10:14:25.548Z,2860.00
2022-09-12T10:15:25.536Z,2808.00
2022-09-12T10:16:25.537Z,2804.00
2022-09-12T10:17:25.508Z,2796.00
2022-09-12T10:18:25.490Z,2780.00
2022-09-12T10:19:25.469Z,2796.00
2022-09-12T10:20:25.474Z,2856.00
2022-09-12T10:21:25.468Z,2960.00
2022-09-12T10:22:25.439Z,3080.00
2022-09-12T10:23:25.423Z,3152.00
2022-09-12T10:24:25.410Z,3220.00
2022-09-12T10:25:25.391Z,3236.00
2022-09-12T10:26:25.418Z,3280.00
2022-09-12T10:27:25.389Z,3364.00
2022-09-12T10:28:25.350Z,3428.00
2022-09-12T10:29:25.341Z,3444.00
2022-09-12T10:30:25.373Z,3476.00
2022-09-12T10:31:25.332Z,3472.00
2022-09-12T10:32:29.960Z,3556.00
2022-09-12T10:33:26.284Z,3680.00
2022-09-12T10:34:25.286Z,3852.00
2022-09-12T10:35:25.260Z,4080.00
2022-09-12T10:36:25.270Z,4176.00
2022-09-12T10:37:25.224Z,4364.00
2022-09-12T10:38:25.221Z,4548.00
2022-09-12T10:39:25.198Z,4788.00
2022-09-12T10:40:25.257Z,5344.00
2022-09-12T10:41:25.203Z,6128.00
2022-09-12T10:42:25.165Z,10468.00
2022-09-12T10:43:25.145Z,31744.00
2022-09-12T10:44:25.136Z,58176.00
2022-09-12T10:45:25.124Z,70080.00
2022-09-12T10:46:25.222Z,66144.00
2022-09-12T10:47:25.100Z,54720.00
2022-09-12T10:48:25.084Z,56704.00
2022-09-12T10:49:25.068Z,58816.00
2022-09-12T10:50:25.058Z,60832.00
2022-09-12T10:51:25.068Z,61664.00
2022-09-12T10:52:25.031Z,61536.00
2022-09-12T10:53:25.016Z,56064.00
2022-09-12T10:54:25.027Z,55712.00
2022-09-12T10:55:24.990Z,61632.00
2022-09-12T10:56:25.001Z,60480.00
2022-09-12T10:57:24.959Z,61600.00
2022-09-12T10:58:24.954Z,71840.00
2022-09-12T10:59:24.931Z,76320.00
2022-09-12T11:00:24.921Z,71232.00
2022-09-12T11:01:24.961Z,66976.00
2022-09-12T11:02:24.955Z,66112.00
2022-09-12T11:03:24.884Z,69792.00
2022-09-12T11:04:24.893Z,70272.00
2022-09-12T11:05:24.853Z,67200.00
2022-09-12T11:06:24.882Z,66752.00
2022-09-12T11:07:24.827Z,62464.00
2022-09-12T11:08:24.843Z,63872.00
2022-09-12T11:09:24.804Z,65504.00
2022-09-12T11:10:24.796Z,72992.00
2022-09-12T11:11:24.803Z,73024.00
2022-09-12T11:12:24.765Z,70240.00
2022-09-12T11:13:24.751Z,72032.00
2022-09-12T11:14:24.745Z,71072.00
2022-09-12T11:15:24.727Z,67680.00
2022-09-12T11:16:24.737Z,59264.00
2022-09-12T11:17:24.698Z,64640.00
2022-09-12T11:18:24.688Z,75712.00
2022-09-12T11:19:24.676Z,73152.00
2022-09-12T11:20:24.679Z,66880.00
2022-09-12T11:21:24.670Z,65024.00
2022-09-12T11:22:26.770Z,63552.00
2022-09-12T11:23:25.621Z,66592.00
2022-09-12T11:24:24.611Z,62720.00
2022-09-12T11:25:24.593Z,65376.00
2022-09-12T11:26:24.612Z,68160.00
2022-09-12T11:27:24.574Z,68608.00
2022-09-12T11:28:24.565Z,66944.00
2022-09-12T11:29:24.567Z,67072.00
2022-09-12T11:30:24.532Z,71104.00
2022-09-12T11:31:24.555Z,68992.00
2022-09-12T11:32:24.512Z,68864.00
2022-09-12T11:33:24.494Z,65952.00
2022-09-12T11:34:24.487Z,70464.00
2022-09-12T11:35:24.474Z,67424.00
2022-09-12T11:36:24.496Z,67712.00
2022-09-12T11:37:24.454Z,63712.00
2022-09-12T11:38:24.444Z,64224.00
2022-09-12T11:39:24.418Z,65088.00
2022-09-12T11:40:24.554Z,76320.00
2022-09-12T11:41:24.418Z,79520.00
2022-09-12T11:42:24.390Z,79392.00
2022-09-12T11:43:24.379Z,74784.00
2022-09-12T11:44:24.360Z,77440.00
2022-09-12T11:45:24.360Z,78144.00
2022-09-12T11:46:24.392Z,77728.00
2022-09-12T11:47:24.320Z,76896.00
2022-09-12T11:48:24.311Z,73696.00
2022-09-12T11:49:24.300Z,70624.00
2022-09-12T11:50:24.285Z,68160.00
2022-09-12T11:51:24.310Z,69856.00
2022-09-12T11:52:24.272Z,70944.00
2022-09-12T11:53:24.243Z,72896.00
2022-09-12T11:54:24.243Z,56672.00
2022-09-12T11:55:24.221Z,56352.00
2022-09-12T11:56:24.242Z,50976.00
2022-09-12T11:57:24.195Z,59776.00
2022-09-12T11:58:24.194Z,68960.00
2022-09-12T11:59:24.177Z,65024.00
2022-09-12T12:00:24.166Z,62816.00
2022-09-12T12:01:24.178Z,60096.00
2022-09-12T12:02:24.207Z,70496.00
2022-09-12T12:03:24.175Z,72320.00
2022-09-12T12:04:24.120Z,70176.00
2022-09-12T12:05:24.110Z,77664.00
2022-09-12T12:06:24.118Z,79264.00
2022-09-12T12:07:24.081Z,77024.00
2022-09-12T12:08:24.071Z,79744.00
2022-09-12T12:09:24.050Z,66944.00
2022-09-12T12:10:24.040Z,75776.00
2022-09-12T12:11:24.071Z,70496.00
2022-09-12T12:12:24.022Z,78240.00
2022-09-12T12:13:24.005Z,80288.00
2022-09-12T12:14:24.002Z,72704.00
2022-09-12T12:15:23.993Z,80064.00
2022-09-12T12:16:24.065Z,52352.00
2022-09-12T12:17:23.964Z,60128.00
2022-09-12T12:18:23.964Z,78944.00
2022-09-12T12:19:23.935Z,57440.00
2022-09-12T12:20:23.939Z,36128.00
2022-09-12T12:21:23.935Z,38208.00
2022-09-12T12:22:23.909Z,32032.00
2022-09-12T12:23:23.888Z,36864.00
2022-09-12T12:24:23.909Z,33120.00
2022-09-12T12:25:27.571Z,49216.00
2022-09-12T12:26:24.879Z,48160.00
2022-09-12T12:27:23.837Z,32800.00
2022-09-12T12:28:23.829Z,44416.00
2022-09-12T12:29:23.809Z,40608.00
2022-09-12T12:30:23.808Z,68160.00
2022-09-12T12:31:23.914Z,68352.00